AirNav   Air Wisconsin Up To $57,000 Bonus
 
 1467 users online  

94K Cassville Municipal Airport
Cassville, Missouri, USA

GOING TO CASSVILLE?


FAA INFORMATION EFFECTIVE 10 OCTOBER 2019

Location

FAA Identifier: 94K
Lat/Long: 36-41-50.7000N 093-54-01.9000W
36-41.845000N 093-54.031667W
36.6974167,-93.9005278
(estimated)
Elevation: 1482.6 ft. / 451.9 m (surveyed)
Variation: 02E (2010)
From city: 2 miles NW of CASSVILLE, MO
Time zone: UTC -5 (UTC -6 during Standard Time)
Zip code: 65625

Airport Operations

Airport use: Open to the public
Control tower: no
ARTCC: KANSAS CITY CENTER
FSS: COLUMBIA FLIGHT SERVICE STATION
NOTAMs facility: COU (NOTAM-D service available)
Attendance: UNATNDD
Wind indicator: lighted
Segmented circle: yes
Lights: ACTVT MIRL RWY 09/27 SS-SR CTAF. PAPI RWYS 09/27 OPRS 24 HRS.
Beacon: white-green (lighted land airport)
Operates sunset to sunrise.

Airport Communications

CTAF: 122.9
SPRINGFIELD APPROACH: 124.95
SPRINGFIELD DEPARTURE: 124.95
WX AWOS-3 at HFJ (14 nm NW): 118.275 (417-476-2613)

Nearby radio navigation aids

VOR radial/distance  VOR name  Freq  Var
EOSr102/27.2NEOSHO VOR/DME117.3007E
RZCr017/29.1RAZORBACK VORTAC116.4004E

Airport Services

Fuel available: 100LL
Parking: tiedowns
Airframe service: NONE
Powerplant service: NONE
Bottled oxygen: NONE
Bulk oxygen: NONE

Runway Information

Runway 9/27

Dimensions: 3599 x 60 ft. / 1097 x 18 m
Surface: asphalt, in poor condition
SVR FULL-DEPTH CRACKING 1-4" WIDE ENTR LEN OF RWY.
Weight bearing capacity: 
Single wheel: 8.0
Runway edge lights: medium intensity
Runway edge markings: RWY 27 MKGS SVRLY FADED.
RUNWAY 9  RUNWAY 27
Latitude: 36-41.842640N36-41.845980N
Longitude: 093-54.399787W093-53.663258W
Elevation: 1479.4 ft.1471.5 ft.
Traffic pattern: leftleft
Runway heading: 088 magnetic, 090 true268 magnetic, 270 true
Markings: nonprecision, in poor conditionnonprecision, in poor condition
Visual slope indicator: 2-light PAPI on left (3.00 degrees glide path)2-light PAPI on left (3.00 degrees glide path)
Touchdown point: yes, no lightsyes, no lights

Airport Ownership and Management from official FAA records

Ownership: Publicly-owned
Owner: CITY OF CASSVILLE
300 MAIN ST
CASSVILLE, MO 65625
Phone 417-847-4441
Manager: JUSTIN HENSON
300 S MAIN
CASSVILLE, MO 65625
Phone 417-847-4441
EVE PHONE # 417-342-2814

Airport Operational Statistics

Aircraft based on the field: 16
Single engine airplanes: 16
    
Aircraft operations: avg 49/week *
74% transient general aviation
24% local general aviation
2% air taxi
* for 12-month period ending 31 December 2018

Additional Remarks

100LL SELF SVC AVBL WITH CREDIT CARD ONLY.
FOR CD CTC SPRINGFIELD APCH AT 417-868-5620/5619.

Instrument Procedures

NOTE: All procedures below are presented as PDF files. If you need a reader for these files, you should download the free Adobe Reader.

NOT FOR NAVIGATION. Please procure official charts for flight.
FAA instrument procedures published for use from 10 October 2019 at 0901Z to 17 November 2019 at 0900Z.

 
IAPs - Instrument Approach Procedures
RNAV (GPS) RWY 09 **CHANGED**   download (187KB)
RNAV (GPS) RWY 27 **CHANGED**   download (174KB)
VOR RWY 09 **CHANGED**   download (183KB)
NOTE: Special Take-Off Minimums/Departure Procedures apply   download (166KB)

Other nearby airports with instrument procedures:

KHFJ - Monett Regional Airport (14 nm NW)
2H2 - Jerry Sumners Sr. Aurora Municipal Airport (19 nm NE)
KROG - Rogers Executive Airport - Carter Field (22 nm SW)
4M1 - Carroll County Airport (23 nm SE)
KFWB - Branson West Municipal Airport - Emerson Field (24 nm E)
 
Loc | Ops | Rwys | IFR | FBO | Links
Com | Nav | Svcs | Stats | Notes

Branson Jet Center
AirBoss

 
Area around 94K (Cassville Municipal Airport)
 
Road maps at: MapQuest Bing Google
 
Aerial photo
WARNING: Photo may not be current or correct
Aerial photo of 94K (Cassville Municipal Airport)
Photo taken 20-May-2006

Do you have a better or more recent aerial photo of Cassville Municipal Airport that you would like to share? If so, please send us your photo.

 
Sectional chart

 
Airport distance calculator
Flying to Cassville Municipal Airport? Find the distance to fly.

From to 94K

Sunrise and sunset
Times for 16-Oct-2019
 Local
(UTC-5)
 Zulu
(UTC)
Morning civil twilight06:5911:59
Sunrise07:2512:25
Sunset18:3723:37
Evening civil twilight19:0400:04

Current date and time
Zulu (UTC)  16-Oct-2019 19:50:31
Local (UTC-5)  16-Oct-2019 14:50:31
 
METAR
KHFJ 
14nm NW 
161935Z AUTO 27007KT 10SM CLR 12/04 A3016 RMK AO2
KROG 
22nm SW 
161858Z VRB05KT 10SM CLR 13/04 A3018 RMK AO2 SLP219 T01330039
KFWB 
24nm E 
161935Z AUTO 32006KT 10SM CLR 14/03 A3015 RMK AO2 P0002 PWINO PNO
KVBT 
26nm SW 
161856Z AUTO 31005KT 10SM CLR 13/04 A3019 RMK AO2 SLP228 T01330044
TAF
KROG 
22nm SW 
161734Z 1618/1718 32008KT P6SM SKC FM170000 00000KT P6SM SKC FM170600 00000KT 5SM BR SKC FM171400 08003KT P6SM SKC
NOTAMs
Click for the latest NOTAMs
NOTAMs are issued by the DoD/FAA and will open in a separate window not controlled by AirNav.

 

 
 

FBO, Fuel Providers, and Aircraft Ground Support

  
 Business Name 
 
 Contact 
 
 Services / Description 
 
Fuel Prices
 
Comments
  
City of Cassville 417-847-4441
no information available

If you are affiliated with City of Cassville and would like to show here your services, contact info, web link, logo, and more, click here
no prices available
 
   1 read write
Update Fuel Prices
 

Would you like to see your business listed on this page?

 If your business provides an interesting product or service to pilots, flight crews, aircraft, or users of the Cassville Municipal Airport, you should consider listing it here.  To start the listing process, click on the button below
 
Add a business
 

Other Pages about Cassville Municipal Airport

Update a link
 
Copyright © AirNav, LLC. All rights reserved. Privacy Policy  Contact